Time;durP1;ratioP1;P1;durP2;ratioP2;P2;SDS_P1;SDS_P2;PMS_P1;PMS_P2;Temp;Humidity;BMP_temperature;BMP_pressure;BME280_temperature;BME280_humidity;BME280_pressure;Samples;Min_cycle;Max_cycle;Signal;HPM_P1;HPM_P2
2022/07/13 00:02:24;;;;;;;1.50;0.60;;;14.80;99.90;;;;;;5101304;28;20425;-75
2022/07/13 00:04:50;;;;;;;1.30;0.60;;;14.70;99.90;;;;;;5112858;28;20904;-75
2022/07/13 00:07:15;;;;;;;1.63;0.57;;;14.70;99.90;;;;;;5109381;28;20836;-74
2022/07/13 00:09:41;;;;;;;1.50;0.70;;;14.70;99.90;;;;;;5110196;28;20175;-75
2022/07/13 00:12:07;;;;;;;1.70;0.60;;;14.70;99.90;;;;;;5110553;28;20186;-75
2022/07/13 00:14:34;;;;;;;2.87;0.70;;;14.70;99.90;;;;;;5111433;28;20465;-75
2022/07/13 00:16:59;;;;;;;1.60;0.80;;;14.60;99.90;;;;;;5110856;28;20969;-75
2022/07/13 00:19:25;;;;;;;2.30;0.90;;;14.60;99.90;;;;;;5112515;28;20500;-75
2022/07/13 00:21:54;;;;;;;1.73;0.77;;;14.60;99.90;;;;;;5111752;28;20271;-75
2022/07/13 00:24:20;;;;;;;1.40;0.70;;;14.60;99.90;;;;;;5112679;28;20538;-75
2022/07/13 00:26:46;;;;;;;4.90;0.63;;;14.50;99.90;;;;;;5112071;28;20433;-75
2022/07/13 00:29:12;;;;;;;2.37;0.77;;;14.50;99.90;;;;;;5112546;28;20428;-75
2022/07/13 00:31:37;;;;;;;1.30;0.50;;;14.50;99.90;;;;;;5107270;28;20179;-75
2022/07/13 00:34:03;;;;;;;1.70;0.90;;;14.50;99.90;;;;;;5104468;28;20603;-75
2022/07/13 00:36:29;;;;;;;2.30;0.93;;;14.50;99.90;;;;;;5111478;28;20263;-75
2022/07/13 00:38:54;;;;;;;1.50;0.73;;;14.50;99.90;;;;;;5112222;28;20669;-75
2022/07/13 00:41:20;;;;;;;3.60;0.80;;;14.40;99.90;;;;;;5111625;28;20183;-75
2022/07/13 00:43:45;;;;;;;2.27;0.93;;;14.40;99.90;;;;;;5112221;28;20180;-75
2022/07/13 00:46:13;;;;;;;1.60;0.80;;;14.40;99.90;;;;;;5110827;28;20234;-75
2022/07/13 00:48:39;;;;;;;2.00;0.63;;;14.30;99.90;;;;;;5110810;28;20203;-75
2022/07/13 00:51:05;;;;;;;1.70;0.87;;;14.30;99.90;;;;;;5110555;28;20469;-75
2022/07/13 00:53:37;;;;;;;2.50;0.80;;;14.30;99.90;;;;;;5107997;28;20179;-75
2022/07/13 00:56:03;;;;;;;2.13;0.70;;;14.20;99.90;;;;;;5110964;28;20510;-75
2022/07/13 00:58:30;;;;;;;1.70;0.60;;;14.20;99.90;;;;;;5109341;28;20771;-75
2022/07/13 01:00:55;;;;;;;1.37;0.60;;;14.20;99.90;;;;;;5097715;28;20430;-75
2022/07/13 01:03:21;;;;;;;1.87;0.83;;;14.10;99.90;;;;;;5110795;28;20907;-75
2022/07/13 01:05:47;;;;;;;1.73;0.73;;;14.10;99.90;;;;;;5107450;28;20634;-75
2022/07/13 01:08:13;;;;;;;2.07;0.73;;;14.00;99.90;;;;;;5108169;28;20184;-75
2022/07/13 01:10:41;;;;;;;2.00;1.13;;;14.00;99.90;;;;;;5109601;28;20188;-75
2022/07/13 01:13:09;;;;;;;1.50;0.60;;;13.90;99.90;;;;;;5097540;28;20267;-75
2022/07/13 01:15:35;;;;;;;1.73;0.60;;;14.00;99.90;;;;;;5111951;28;20465;-75
2022/07/13 01:18:01;;;;;;;2.43;0.73;;;14.00;99.90;;;;;;5111542;28;21028;-75
2022/07/13 01:20:27;;;;;;;1.43;0.60;;;13.90;99.90;;;;;;5111886;28;20226;-75
2022/07/13 01:22:53;;;;;;;2.07;0.90;;;13.90;99.90;;;;;;5107858;28;20180;-75
2022/07/13 01:25:19;;;;;;;2.27;0.80;;;13.90;99.90;;;;;;5109023;28;20225;-75
2022/07/13 01:27:47;;;;;;;2.20;0.80;;;13.80;99.90;;;;;;5112464;28;20790;-75
2022/07/13 01:30:14;;;;;;;1.60;0.80;;;13.80;99.90;;;;;;5115870;28;20433;-75
2022/07/13 01:32:47;;;;;;;1.50;0.60;;;13.80;99.90;;;;;;5110266;28;20444;-75
2022/07/13 01:35:15;;;;;;;1.93;0.70;;;13.80;99.90;;;;;;5111406;28;20461;-75
2022/07/13 01:37:42;;;;;;;1.90;0.90;;;13.80;99.90;;;;;;5115243;28;20437;-75
2022/07/13 01:40:08;;;;;;;1.60;0.70;;;13.70;99.90;;;;;;5114577;28;20846;-75
2022/07/13 01:42:45;;;;;;;2.10;0.80;;;13.70;99.90;;;;;;5108756;28;20523;-75
2022/07/13 01:45:12;;;;;;;1.97;0.90;;;13.70;99.90;;;;;;5109381;28;20440;-75
2022/07/13 01:47:39;;;;;;;2.10;0.73;;;13.70;99.90;;;;;;5115610;28;20450;-75
2022/07/13 01:50:07;;;;;;;1.60;0.70;;;13.70;99.90;;;;;;5116526;28;20690;-75
2022/07/13 01:52:33;;;;;;;3.17;1.03;;;13.70;99.90;;;;;;5115853;28;20551;-74
2022/07/13 01:54:59;;;;;;;1.37;0.67;;;13.70;99.90;;;;;;5114669;28;20543;-75
2022/07/13 01:57:25;;;;;;;1.70;1.00;;;13.70;99.90;;;;;;5114878;28;20180;-75
2022/07/13 01:59:51;;;;;;;1.60;0.60;;;13.70;99.90;;;;;;5109316;28;20422;-75
2022/07/13 02:02:17;;;;;;;1.40;0.60;;;13.70;99.90;;;;;;5107972;28;20423;-74
2022/07/13 02:04:43;;;;;;;1.40;0.50;;;13.70;99.90;;;;;;5111811;28;20825;-74
2022/07/13 02:07:09;;;;;;;2.23;0.70;;;13.70;99.90;;;;;;5114601;27;20184;-74
2022/07/13 02:09:34;;;;;;;3.53;1.17;;;13.80;99.90;;;;;;5114883;28;20429;-74
2022/07/13 02:12:00;;;;;;;2.07;0.80;;;13.80;99.90;;;;;;5114275;28;20179;-75
2022/07/13 02:14:26;;;;;;;6.63;1.00;;;13.80;99.90;;;;;;5114747;28;20257;-74
2022/07/13 02:16:51;;;;;;;1.30;0.50;;;13.70;99.90;;;;;;5114614;28;20259;-75
2022/07/13 02:19:17;;;;;;;3.40;0.80;;;13.80;99.90;;;;;;5114762;27;20606;-75
2022/07/13 02:21:43;;;;;;;1.60;0.73;;;13.70;99.90;;;;;;5114375;28;20175;-75
2022/07/13 02:24:08;;;;;;;2.80;1.00;;;13.70;99.90;;;;;;5114825;28;20172;-75
2022/07/13 02:26:34;;;;;;;1.70;0.73;;;13.60;99.90;;;;;;5114397;28;20547;-75
2022/07/13 02:28:59;;;;;;;1.70;0.80;;;13.60;99.90;;;;;;5114699;28;20203;-74
2022/07/13 02:31:25;;;;;;;1.60;0.73;;;13.60;99.90;;;;;;5114153;28;20183;-75
2022/07/13 02:33:50;;;;;;;1.73;0.80;;;13.60;99.90;;;;;;5110064;28;20180;-75
2022/07/13 02:36:16;;;;;;;1.47;0.70;;;13.50;99.90;;;;;;5114101;28;20653;-75
2022/07/13 02:38:42;;;;;;;1.50;0.70;;;13.50;99.90;;;;;;5112872;28;20641;-75
2022/07/13 02:41:07;;;;;;;4.33;0.90;;;13.40;99.90;;;;;;5112004;28;20285;-75
2022/07/13 02:43:33;;;;;;;1.30;0.60;;;13.50;99.90;;;;;;5112542;28;20633;-74
2022/07/13 02:45:59;;;;;;;2.50;0.80;;;13.40;99.90;;;;;;5113462;28;20184;-75
2022/07/13 02:48:24;;;;;;;1.43;0.60;;;13.40;99.90;;;;;;5106375;28;20246;-75
2022/07/13 02:50:50;;;;;;;2.10;0.80;;;13.40;99.90;;;;;;5107857;28;20303;-75
2022/07/13 02:53:15;;;;;;;1.90;0.70;;;13.40;99.90;;;;;;5099404;28;20188;-75
2022/07/13 02:55:41;;;;;;;1.73;0.90;;;13.40;99.90;;;;;;5112652;28;20657;-75
2022/07/13 02:58:07;;;;;;;1.97;0.87;;;13.40;99.90;;;;;;5109508;28;20193;-75
2022/07/13 03:00:32;;;;;;;10.30;1.00;;;13.40;99.90;;;;;;5106663;28;20199;-75
2022/07/13 03:02:58;;;;;;;2.33;0.90;;;13.40;99.90;;;;;;5111781;28;20172;-75
2022/07/13 03:05:24;;;;;;;1.67;0.73;;;13.30;99.90;;;;;;5112551;28;20179;-74
2022/07/13 03:07:50;;;;;;;2.37;0.90;;;13.30;99.90;;;;;;5106537;28;20172;-74
2022/07/13 03:10:16;;;;;;;3.00;0.60;;;13.20;99.90;;;;;;5108542;28;20262;-75
2022/07/13 03:12:42;;;;;;;2.67;0.70;;;13.30;99.90;;;;;;5113006;28;20611;-75
2022/07/13 03:15:08;;;;;;;2.33;1.00;;;13.30;99.90;;;;;;5107939;28;20278;-75
2022/07/13 03:17:33;;;;;;;2.83;0.70;;;13.20;99.90;;;;;;5106288;28;20811;-75
2022/07/13 03:19:59;;;;;;;2.13;0.80;;;13.20;99.90;;;;;;5103615;28;20426;-75
2022/07/13 03:22:24;;;;;;;4.37;0.77;;;13.10;99.90;;;;;;5109689;28;20176;-74
2022/07/13 03:24:50;;;;;;;1.63;0.80;;;13.10;99.90;;;;;;5113330;28;20179;-74
2022/07/13 03:27:16;;;;;;;2.10;0.60;;;13.10;99.90;;;;;;5098950;28;20622;-75
2022/07/13 03:29:42;;;;;;;1.70;0.80;;;13.10;99.90;;;;;;5108401;28;20181;-75
2022/07/13 03:32:07;;;;;;;4.43;0.70;;;13.00;99.90;;;;;;5113140;28;20187;-75
2022/07/13 03:34:33;;;;;;;1.90;0.90;;;13.00;99.90;;;;;;5101938;28;20217;-75
2022/07/13 03:36:59;;;;;;;1.40;0.60;;;13.00;99.90;;;;;;5112074;28;20180;-75
2022/07/13 03:39:24;;;;;;;1.63;0.87;;;12.90;99.90;;;;;;5097934;28;20184;-75
2022/07/13 03:41:50;;;;;;;4.40;0.70;;;13.00;99.90;;;;;;5104462;28;20184;-75
2022/07/13 03:44:16;;;;;;;2.10;1.00;;;13.00;99.90;;;;;;5112470;28;20215;-75
2022/07/13 03:46:41;;;;;;;1.60;0.73;;;13.00;99.90;;;;;;5107497;28;20589;-75
2022/07/13 03:49:07;;;;;;;3.17;1.13;;;13.00;99.90;;;;;;5106048;28;20192;-75
2022/07/13 03:51:33;;;;;;;2.00;0.80;;;12.90;99.90;;;;;;5109333;27;20184;-75
2022/07/13 03:53:58;;;;;;;2.83;1.00;;;12.90;99.90;;;;;;5110978;28;20535;-75
2022/07/13 03:56:24;;;;;;;2.40;0.90;;;12.90;99.90;;;;;;5104898;28;20183;-75
2022/07/13 03:58:49;;;;;;;2.40;1.00;;;12.90;99.90;;;;;;5101439;28;20219;-75
2022/07/13 04:01:18;;;;;;;1.90;0.80;;;12.90;99.90;;;;;;5111579;28;20175;-75
2022/07/13 04:03:44;;;;;;;3.50;1.13;;;12.90;99.90;;;;;;5110816;28;20176;-75
2022/07/13 04:06:09;;;;;;;3.57;1.10;;;12.90;99.90;;;;;;5106053;28;20938;-75
2022/07/13 04:08:35;;;;;;;1.77;1.07;;;12.80;99.90;;;;;;5102819;28;20172;-75
2022/07/13 04:11:02;;;;;;;2.00;1.17;;;12.80;99.90;;;;;;5106809;28;20180;-75
2022/07/13 04:13:27;;;;;;;2.13;1.10;;;12.90;99.90;;;;;;5107409;28;20266;-75
2022/07/13 04:15:53;;;;;;;2.23;0.87;;;13.00;99.90;;;;;;5103605;28;20548;-75
2022/07/13 04:18:19;;;;;;;1.40;0.70;;;13.00;99.90;;;;;;5112545;28;20259;-74
2022/07/13 04:20:44;;;;;;;3.10;1.10;;;13.00;99.90;;;;;;5111872;28;20593;-75
2022/07/13 04:23:10;;;;;;;1.40;0.70;;;13.00;99.90;;;;;;5112116;28;20240;-75
2022/07/13 04:25:35;;;;;;;2.27;0.70;;;13.00;99.90;;;;;;5112321;28;20180;-75
2022/07/13 04:28:01;;;;;;;1.57;0.67;;;13.00;99.90;;;;;;5112187;28;20567;-75
2022/07/13 04:30:27;;;;;;;1.93;0.80;;;13.00;99.90;;;;;;5110671;28;20284;-75
2022/07/13 04:32:53;;;;;;;1.80;0.80;;;13.00;99.90;;;;;;5111859;28;20262;-75
2022/07/13 04:35:18;;;;;;;3.70;1.10;;;13.00;99.90;;;;;;5107369;28;20200;-75
2022/07/13 04:37:44;;;;;;;2.70;1.67;;;13.00;99.90;;;;;;5105272;28;20210;-75
2022/07/13 04:40:10;;;;;;;16.70;1.40;;;13.10;99.90;;;;;;5111358;28;20259;-75
2022/07/13 04:42:36;;;;;;;2.20;1.13;;;13.10;99.90;;;;;;5107829;28;20258;-75
2022/07/13 04:45:02;;;;;;;1.77;0.87;;;13.20;99.90;;;;;;5112327;28;20500;-75
2022/07/13 04:47:27;;;;;;;2.53;1.07;;;13.20;99.90;;;;;;5111786;28;20618;-75
2022/07/13 04:49:53;;;;;;;2.30;0.93;;;13.30;99.90;;;;;;5111989;28;20184;-75
2022/07/13 04:52:18;;;;;;;4.03;1.90;;;13.40;99.90;;;;;;5110081;28;20669;-75
2022/07/13 04:54:44;;;;;;;5.80;1.20;;;13.50;99.90;;;;;;5108847;28;20203;-75
2022/07/13 04:57:10;;;;;;;2.37;1.30;;;13.60;99.90;;;;;;5104231;28;20648;-75
2022/07/13 04:59:36;;;;;;;2.00;1.07;;;13.60;99.90;;;;;;5107627;28;20194;-75
2022/07/13 05:02:01;;;;;;;1.97;0.97;;;13.80;99.90;;;;;;5105715;28;20172;-75
2022/07/13 05:04:27;;;;;;;2.23;0.93;;;13.80;99.90;;;;;;5103293;28;20190;-75
2022/07/13 05:06:52;;;;;;;2.00;1.10;;;13.90;99.90;;;;;;5114388;28;20179;-75
2022/07/13 05:09:18;;;;;;;2.07;1.00;;;14.00;99.90;;;;;;5111175;28;20205;-76
2022/07/13 05:11:44;;;;;;;4.27;1.27;;;14.10;99.90;;;;;;5116267;28;20250;-75
2022/07/13 05:14:09;;;;;;;4.40;1.20;;;14.20;99.90;;;;;;5114816;28;20211;-76
2022/07/13 05:16:35;;;;;;;7.50;1.20;;;14.20;99.90;;;;;;5116442;28;20168;-75
2022/07/13 05:19:01;;;;;;;1.60;0.70;;;14.30;99.90;;;;;;5111877;28;20188;-76
2022/07/13 05:21:26;;;;;;;2.20;1.00;;;14.40;99.90;;;;;;5106177;28;20204;-75
2022/07/13 05:23:52;;;;;;;1.40;0.70;;;14.50;99.90;;;;;;5114837;28;20262;-75
2022/07/13 05:26:18;;;;;;;2.30;1.20;;;14.50;99.90;;;;;;5116191;28;20797;-75
2022/07/13 05:28:44;;;;;;;2.17;1.20;;;14.60;99.90;;;;;;5115058;28;20217;-75
2022/07/13 05:31:09;;;;;;;1.90;1.03;;;14.70;99.90;;;;;;5115283;28;20176;-76
2022/07/13 05:33:35;;;;;;;2.07;0.83;;;14.80;99.90;;;;;;5108699;28;20485;-76
2022/07/13 05:36:04;;;;;;;6.83;1.47;;;14.90;99.90;;;;;;5103058;28;20261;-75
2022/07/13 05:38:30;;;;;;;1.97;1.00;;;15.00;99.90;;;;;;5107512;28;20190;-75
2022/07/13 05:40:56;;;;;;;2.80;1.10;;;15.10;99.90;;;;;;5111857;28;20452;-75
2022/07/13 05:43:21;;;;;;;3.40;0.70;;;15.20;99.90;;;;;;5104743;28;20464;-75
2022/07/13 05:45:47;;;;;;;2.27;1.00;;;15.20;99.90;;;;;;5106412;28;20525;-75
2022/07/13 05:48:12;;;;;;;2.80;0.90;;;15.30;99.90;;;;;;5109904;28;20192;-75
2022/07/13 05:50:38;;;;;;;1.87;0.97;;;15.40;99.90;;;;;;5112118;28;20187;-75
2022/07/13 05:53:04;;;;;;;2.53;1.27;;;15.50;99.90;;;;;;5109225;28;20199;-75
2022/07/13 05:55:30;;;;;;;2.10;1.00;;;15.60;99.90;;;;;;5113811;28;20295;-75
2022/07/13 05:57:55;;;;;;;1.63;0.80;;;15.70;99.90;;;;;;5114455;28;20258;-75
2022/07/13 06:00:21;;;;;;;2.13;1.00;;;15.90;99.90;;;;;;5114549;28;20638;-75
2022/07/13 06:02:46;;;;;;;2.23;1.03;;;16.10;99.90;;;;;;5114804;28;20180;-75
2022/07/13 06:05:12;;;;;;;2.23;1.00;;;16.20;99.90;;;;;;5115352;28;20211;-76
2022/07/13 06:07:38;;;;;;;2.67;1.10;;;16.30;99.90;;;;;;5114671;28;20183;-75
2022/07/13 06:10:05;;;;;;;2.43;1.03;;;16.40;99.90;;;;;;5115219;28;20254;-75
2022/07/13 06:12:31;;;;;;;1.70;0.73;;;16.40;99.90;;;;;;5114464;28;20180;-75
2022/07/13 06:14:57;;;;;;;5.23;0.80;;;16.50;99.90;;;;;;5108850;28;20465;-76
2022/07/13 06:17:23;;;;;;;1.60;0.77;;;16.60;99.90;;;;;;5110965;28;20603;-75
2022/07/13 06:19:49;;;;;;;1.50;0.70;;;16.70;99.90;;;;;;5106166;28;20210;-75
2022/07/13 06:22:15;;;;;;;2.33;0.70;;;16.90;99.90;;;;;;5111680;28;21035;-75
2022/07/13 06:24:42;;;;;;;1.60;0.80;;;17.00;99.90;;;;;;5111140;28;20847;-75
2022/07/13 06:27:08;;;;;;;2.27;1.03;;;17.30;99.90;;;;;;5111748;28;20433;-75
2022/07/13 06:29:34;;;;;;;1.90;0.90;;;17.40;99.90;;;;;;5112168;28;20440;-75
2022/07/13 06:31:59;;;;;;;2.23;0.80;;;17.60;99.90;;;;;;5109008;28;20437;-75
2022/07/13 06:34:25;;;;;;;1.87;0.90;;;17.70;99.90;;;;;;5114867;28;20211;-75
2022/07/13 06:36:51;;;;;;;6.80;0.80;;;17.80;99.90;;;;;;5108885;27;20191;-76
2022/07/13 06:39:17;;;;;;;1.70;0.80;;;18.00;99.90;;;;;;5089987;28;20187;-75
2022/07/13 06:41:43;;;;;;;2.00;0.87;;;18.30;99.90;;;;;;5107132;28;20532;-76
2022/07/13 06:44:09;;;;;;;1.70;0.77;;;18.50;99.90;;;;;;5110749;28;20321;-75
2022/07/13 06:46:35;;;;;;;2.37;0.80;;;18.70;99.90;;;;;;5110077;28;20554;-75
2022/07/13 06:49:00;;;;;;;2.17;0.70;;;19.00;99.50;;;;;;5113339;28;20198;-76
2022/07/13 06:51:26;;;;;;;1.70;0.70;;;19.30;99.20;;;;;;5111209;28;20187;-76
2022/07/13 06:53:51;;;;;;;5.53;1.13;;;19.50;97.80;;;;;;5112087;28;20180;-75
2022/07/13 06:56:17;;;;;;;1.50;0.67;;;19.70;96.30;;;;;;5112135;28;20180;-75
2022/07/13 06:58:44;;;;;;;5.97;0.60;;;19.90;95.20;;;;;;5109135;28;20180;-75
2022/07/13 07:01:09;;;;;;;2.13;0.70;;;20.30;93.40;;;;;;5106136;28;20204;-75
2022/07/13 07:03:35;;;;;;;1.70;0.90;;;20.50;93.20;;;;;;5107924;28;20964;-75
2022/07/13 07:06:01;;;;;;;3.70;0.70;;;20.80;93.90;;;;;;5111702;28;20712;-76
2022/07/13 07:08:26;;;;;;;1.50;0.70;;;21.10;95.00;;;;;;5110310;28;20184;-77
2022/07/13 07:10:52;;;;;;;1.40;0.60;;;21.40;94.10;;;;;;5112524;28;20207;-76
2022/07/13 07:13:18;;;;;;;3.53;0.83;;;21.60;93.60;;;;;;5108041;28;20195;-76
2022/07/13 07:15:43;;;;;;;7.13;0.80;;;21.80;92.20;;;;;;5104041;28;20227;-76
2022/07/13 07:18:09;;;;;;;1.83;0.73;;;22.10;92.00;;;;;;5106549;28;20212;-76
2022/07/13 07:20:34;;;;;;;2.00;0.70;;;22.40;91.30;;;;;;5109458;28;20185;-76
2022/07/13 07:23:00;;;;;;;2.33;0.80;;;22.60;90.40;;;;;;5113109;28;20213;-76
2022/07/13 07:25:26;;;;;;;3.10;0.80;;;22.70;90.70;;;;;;5113047;28;20273;-76
2022/07/13 07:27:52;;;;;;;1.90;0.80;;;23.00;90.00;;;;;;5111408;28;20262;-76
2022/07/13 07:30:18;;;;;;;2.57;0.73;;;23.20;90.90;;;;;;5111625;28;20807;-76
2022/07/13 07:32:44;;;;;;;6.23;0.90;;;23.30;87.70;;;;;;5109894;28;20855;-75
2022/07/13 07:35:10;;;;;;;1.50;0.60;;;23.40;87.70;;;;;;5109500;28;20496;-77
2022/07/13 07:37:38;;;;;;;2.20;0.90;;;23.60;85.10;;;;;;5106512;28;20191;-78
2022/07/13 07:40:05;;;;;;;1.47;0.60;;;23.80;85.10;;;;;;5107934;28;20421;-78
2022/07/13 07:42:31;;;;;;;1.73;0.70;;;24.50;81.90;;;;;;5114865;28;20432;-77
2022/07/13 07:44:57;;;;;;;6.67;0.80;;;24.60;83.30;;;;;;5115648;28;20433;-77
2022/07/13 07:47:25;;;;;;;1.93;0.80;;;24.70;81.70;;;;;;5111129;28;20182;-77
2022/07/13 07:49:54;;;;;;;13.47;0.70;;;24.90;80.70;;;;;;5108322;28;20859;-77
2022/07/13 07:52:21;;;;;;;1.73;0.70;;;25.20;81.80;;;;;;5110163;28;20421;-78
2022/07/13 07:54:48;;;;;;;1.40;0.60;;;25.20;77.70;;;;;;5107083;28;20449;-77
2022/07/13 07:57:14;;;;;;;1.50;0.60;;;25.30;78.10;;;;;;5105697;28;20182;-78
2022/07/13 07:59:41;;;;;;;1.60;0.70;;;25.60;75.90;;;;;;5120683;28;20650;-78
2022/07/13 08:02:07;;;;;;;1.50;0.60;;;25.70;73.00;;;;;;5122808;28;20187;-77
2022/07/13 08:04:33;;;;;;;5.90;0.60;;;25.60;75.50;;;;;;5130562;28;20179;-78
2022/07/13 08:06:59;;;;;;;1.40;0.50;;;25.70;74.50;;;;;;5130021;28;20186;-77
2022/07/13 08:09:26;;;;;;;1.52;0.70;;;26.00;74.20;;;;;;5099193;28;20179;-78
2022/07/13 08:11:51;;;;;;;1.70;0.70;;;26.20;73.50;;;;;;5102425;28;20677;-78
2022/07/13 08:14:17;;;;;;;1.50;0.60;;;26.30;69.60;;;;;;5112239;28;20211;-78
2022/07/13 08:16:43;;;;;;;1.70;0.65;;;26.40;71.40;;;;;;5101316;28;20183;-78
2022/07/13 08:19:09;;;;;;;1.70;0.70;;;26.40;73.30;;;;;;5102454;28;20179;-78
2022/07/13 08:21:35;;;;;;;1.40;0.50;;;26.40;72.70;;;;;;5100942;28;20485;-78
2022/07/13 08:24:01;;;;;;;1.50;0.60;;;26.40;72.50;;;;;;5107118;28;20232;-78
2022/07/13 08:26:29;;;;;;;1.90;0.80;;;26.30;71.40;;;;;;5102869;28;20277;-78
2022/07/13 08:28:57;;;;;;;1.80;0.77;;;26.20;72.70;;;;;;5105707;28;20168;-78
2022/07/13 08:31:23;;;;;;;2.27;0.80;;;26.40;72.10;;;;;;5098162;28;20206;-78
2022/07/13 08:39:19;;;;;;;2.55;0.70;;;26.30;72.50;;;;;;5101845;28;20226;-78
2022/07/13 08:41:46;;;;;;;1.55;0.60;;;26.70;72.70;;;;;;5108750;28;20203;-79
2022/07/13 08:44:12;;;;;;;1.75;0.80;;;26.90;71.70;;;;;;5109957;28;20175;-78
2022/07/13 08:46:38;;;;;;;1.90;0.60;;;27.10;69.40;;;;;;5106992;28;20176;-78
2022/07/13 08:49:05;;;;;;;2.20;0.70;;;27.10;70.50;;;;;;5110576;28;20186;-78
2022/07/13 08:51:32;;;;;;;1.63;0.63;;;27.00;68.80;;;;;;5104144;28;20179;-78
2022/07/13 08:53:59;;;;;;;1.60;0.60;;;27.30;69.90;;;;;;5108889;28;20240;-78
2022/07/13 08:56:25;;;;;;;1.80;0.80;;;27.70;68.60;;;;;;5110849;28;20235;-77
2022/07/13 08:58:52;;;;;;;1.75;0.60;;;28.30;66.40;;;;;;5109784;28;20656;-78
2022/07/13 09:01:19;;;;;;;1.60;0.63;;;28.30;64.30;;;;;;5110343;28;20202;-78
2022/07/13 09:07:33;;;;;;;1.50;0.60;;;28.00;66.20;;;;;;5108633;28;20255;-78
2022/07/13 09:09:59;;;;;;;1.60;0.55;;;27.60;68.70;;;;;;5104365;28;20175;-78
2022/07/13 09:12:26;;;;;;;1.88;0.80;;;27.60;64.80;;;;;;5101055;28;20176;-78
2022/07/13 09:15:01;;;;;;;1.50;0.60;;;27.70;64.50;;;;;;5095088;28;20192;-78
2022/07/13 09:17:35;;;;;;;1.48;0.60;;;27.50;68.10;;;;;;5102391;28;20311;-78
2022/07/13 09:20:09;;;;;;;1.65;0.80;;;27.60;66.80;;;;;;5099038;28;20210;-78
2022/07/13 09:22:57;;;;;;;1.88;0.80;;;27.70;66.70;;;;;;5102182;28;20236;-79
2022/07/13 09:25:42;;;;;;;1.70;0.80;;;27.80;66.50;;;;;;5103189;28;20696;-78
2022/07/13 09:28:10;;;;;;;1.70;0.63;;;28.40;65.70;;;;;;5106587;28;20175;-79
2022/07/13 09:30:40;;;;;;;1.50;0.60;;;28.80;63.90;;;;;;5106240;28;20183;-79
2022/07/13 09:33:06;;;;;;;1.88;0.82;;;29.10;63.60;;;;;;5107997;28;20514;-80
2022/07/13 09:35:47;;;;;;;3.65;0.90;;;29.30;64.40;;;;;;5101396;28;20214;-79
2022/07/13 09:38:38;;;;;;;2.33;0.90;;;30.10;60.60;;;;;;5111066;28;20300;-80
2022/07/13 09:41:16;;;;;;;1.70;0.70;;;30.00;61.70;;;;;;5105887;28;20269;-80
2022/07/13 09:46:52;;;;;;;2.25;0.68;;;30.30;58.50;;;;;;5107707;28;20186;-79
2022/07/13 09:49:29;;;;;;;1.90;0.80;;;30.60;57.30;;;;;;5107675;28;20216;-79
2022/07/13 09:51:59;;;;;;;2.05;0.60;;;30.10;55.70;;;;;;5113758;28;20812;-79
2022/07/13 09:54:30;;;;;;;1.58;0.63;;;30.00;57.40;;;;;;5108192;28;20200;-80
2022/07/13 09:57:03;;;;;;;1.70;0.70;;;30.20;54.80;;;;;;5106632;28;20179;-80
2022/07/13 09:59:29;;;;;;;1.50;0.60;;;30.10;56.70;;;;;;5110745;28;20202;-80
2022/07/13 10:01:55;;;;;;;1.60;0.77;;;30.30;58.50;;;;;;5107592;28;20244;-80
2022/07/13 10:04:22;;;;;;;1.60;0.70;;;30.40;55.50;;;;;;5104431;28;20199;-79
2022/07/13 10:06:49;;;;;;;1.98;0.60;;;30.60;53.40;;;;;;5110348;28;20190;-80
2022/07/13 10:09:19;;;;;;;1.80;0.90;;;30.80;54.10;;;;;;5112369;28;20275;-80
2022/07/13 10:11:44;;;;;;;5.00;1.25;;;30.90;52.00;;;;;;5114041;28;20261;-79
2022/07/13 10:14:12;;;;;;;1.85;0.80;;;30.90;51.50;;;;;;5111040;28;20195;-79
2022/07/13 10:16:38;;;;;;;1.60;0.60;;;31.00;53.70;;;;;;5101771;28;20281;-78
2022/07/13 10:19:07;;;;;;;2.47;0.88;;;31.00;53.90;;;;;;5109617;28;20213;-78
2022/07/13 10:21:54;;;;;;;1.60;0.70;;;30.70;53.50;;;;;;5101776;28;20195;-78
2022/07/13 10:24:20;;;;;;;3.55;0.90;;;30.70;53.40;;;;;;5108774;28;20179;-80
2022/07/13 10:26:49;;;;;;;1.80;0.70;;;30.50;53.20;;;;;;5109525;28;20530;-78
2022/07/13 10:29:15;;;;;;;2.00;0.90;;;30.70;50.90;;;;;;5113213;28;20199;-78
2022/07/13 10:31:42;;;;;;;1.60;0.68;;;30.60;50.40;;;;;;5112112;28;20183;-78
2022/07/13 10:34:10;;;;;;;1.80;0.82;;;30.30;51.40;;;;;;5105253;28;20190;-78
2022/07/13 10:36:52;;;;;;;1.70;0.70;;;29.80;49.80;;;;;;5111407;28;20175;-78
2022/07/13 10:39:20;;;;;;;1.60;0.68;;;29.60;50.20;;;;;;5111362;28;20179;-78
2022/07/13 10:41:59;;;;;;;1.80;0.70;;;29.20;53.30;;;;;;5109385;27;20174;-78
2022/07/13 10:44:43;;;;;;;1.77;0.75;;;29.40;50.80;;;;;;5108211;28;20593;-77
2022/07/13 10:47:11;;;;;;;1.60;0.60;;;29.40;52.00;;;;;;5098859;28;20183;-78
2022/07/13 10:49:47;;;;;;;1.40;0.50;;;29.30;50.70;;;;;;5105511;28;20176;-78
2022/07/13 10:52:21;;;;;;;1.40;0.50;;;29.30;51.40;;;;;;5105154;28;20789;-78
2022/07/13 10:55:09;;;;;;;1.70;0.60;;;29.30;50.50;;;;;;5105913;28;20213;-80
2022/07/13 10:57:37;;;;;;;1.95;0.73;;;29.30;50.50;;;;;;5108774;28;20172;-78
2022/07/13 11:00:28;;;;;;;1.50;0.63;;;29.50;51.50;;;;;;5111788;28;20258;-81
2022/07/13 11:03:01;;;;;;;2.10;0.82;;;29.60;50.90;;;;;;5106315;28;20194;-78
2022/07/13 11:05:34;;;;;;;1.83;0.95;;;29.40;49.10;;;;;;5106532;28;20229;-78
2022/07/13 11:08:12;;;;;;;2.08;0.60;;;29.40;49.50;;;;;;5106902;28;20632;-78
2022/07/13 11:10:38;;;;;;;2.28;0.70;;;29.70;48.20;;;;;;5120618;28;20179;-79
2022/07/13 11:13:14;;;;;;;1.50;0.50;;;29.80;48.80;;;;;;5119969;28;20187;-80
2022/07/13 11:15:55;;;;;;;3.40;0.70;;;29.80;49.30;;;;;;5114156;28;20206;-80
2022/07/13 11:18:21;;;;;;;1.50;0.50;;;30.00;49.20;;;;;;5111638;28;20265;-79
2022/07/13 11:21:14;;;;;;;1.50;0.52;;;30.30;47.40;;;;;;5112363;28;20258;-80
2022/07/13 11:26:45;;;;;;;1.50;0.60;;;30.10;49.80;;;;;;5110797;28;20547;-80
2022/07/13 11:29:32;;;;;;;1.50;0.52;;;30.20;46.50;;;;;;5104736;28;20204;-80
2022/07/13 11:31:59;;;;;;;1.40;0.50;;;30.30;48.80;;;;;;5103688;27;21191;-80
2022/07/13 11:34:29;;;;;;;1.75;0.73;;;30.30;46.50;;;;;;5108849;28;20238;-77
2022/07/13 11:36:57;;;;;;;1.58;0.63;;;30.20;44.50;;;;;;5110957;28;20180;-77
2022/07/13 11:39:27;;;;;;;1.50;0.60;;;30.00;44.10;;;;;;5110684;28;20171;-77
2022/07/13 11:41:57;;;;;;;1.50;0.52;;;30.20;45.40;;;;;;5102334;28;20203;-77
2022/07/13 11:44:29;;;;;;;2.20;0.80;;;30.30;44.00;;;;;;5112666;28;20175;-77
2022/07/13 11:47:00;;;;;;;2.00;0.70;;;30.20;42.80;;;;;;5107313;28;20271;-77
2022/07/13 11:49:27;;;;;;;1.50;0.60;;;30.30;46.20;;;;;;5107346;28;20202;-77
2022/07/13 11:51:53;;;;;;;1.50;0.50;;;30.50;44.60;;;;;;5108393;28;20194;-77
2022/07/13 11:54:20;;;;;;;1.90;0.73;;;30.50;44.70;;;;;;5098352;28;20180;-77
2022/07/13 11:56:54;;;;;;;1.50;0.55;;;30.70;43.00;;;;;;5107973;28;20167;-76
2022/07/13 11:59:40;;;;;;;1.60;0.50;;;30.80;42.00;;;;;;5106543;28;20202;-77
2022/07/13 12:02:08;;;;;;;1.60;0.70;;;30.90;43.10;;;;;;5105192;28;20183;-77
2022/07/13 12:04:35;;;;;;;2.90;0.90;;;31.00;43.40;;;;;;5107389;28;20182;-77
2022/07/13 12:07:41;;;;;;;3.25;0.77;;;31.10;43.20;;;;;;5106250;28;20183;-77
2022/07/13 12:10:08;;;;;;;1.90;0.60;;;31.10;42.40;;;;;;5103423;28;20703;-77
2022/07/13 12:12:36;;;;;;;1.55;0.60;;;30.90;43.00;;;;;;5106172;28;20210;-77
2022/07/13 12:15:03;;;;;;;1.50;0.57;;;31.10;43.30;;;;;;5111043;28;20205;-77
2022/07/13 12:17:31;;;;;;;1.50;0.60;;;31.00;43.60;;;;;;5110544;28;20270;-77
2022/07/13 12:20:17;;;;;;;1.50;0.50;;;31.00;41.90;;;;;;5101865;28;20183;-78
2022/07/13 12:22:54;;;;;;;1.75;0.70;;;30.90;44.10;;;;;;5111646;28;20183;-78
2022/07/13 12:25:27;;;;;;;1.65;0.60;;;30.90;42.20;;;;;;5100452;28;20183;-78
2022/07/13 12:27:54;;;;;;;2.08;0.77;;;31.30;42.60;;;;;;5114508;28;20183;-78
2022/07/13 12:30:20;;;;;;;1.50;0.60;;;31.90;41.70;;;;;;5113901;28;20181;-78
2022/07/13 12:33:05;;;;;;;2.75;0.70;;;32.10;41.90;;;;;;5103481;28;20194;-78
2022/07/13 12:35:30;;;;;;;1.40;0.50;;;32.40;40.40;;;;;;5110459;28;20279;-81
2022/07/13 12:37:58;;;;;;;1.50;0.68;;;32.10;43.90;;;;;;5112846;28;20240;-78
2022/07/13 12:40:39;;;;;;;1.50;0.60;;;32.00;43.50;;;;;;5106145;28;20180;-78
2022/07/13 12:43:17;;;;;;;1.60;0.60;;;32.10;41.50;;;;;;5106642;28;20179;-78
2022/07/13 12:45:51;;;;;;;2.78;1.00;;;31.80;41.90;;;;;;5104621;28;20220;-78
2022/07/13 12:48:19;;;;;;;1.40;0.50;;;31.80;42.20;;;;;;5107119;28;20189;-78
2022/07/13 12:51:00;;;;;;;1.85;0.70;;;31.50;41.60;;;;;;5111259;28;20178;-78
2022/07/13 12:53:44;;;;;;;1.63;0.65;;;31.20;41.90;;;;;;5110966;28;20267;-78
2022/07/13 12:56:10;;;;;;;2.65;1.05;;;31.00;44.00;;;;;;5111113;28;20199;-79
2022/07/13 12:58:49;;;;;;;1.50;0.60;;;31.00;45.30;;;;;;5114177;28;20181;-78
2022/07/13 13:01:35;;;;;;;1.52;0.50;;;31.00;43.60;;;;;;5107646;28;20265;-79
2022/07/13 13:04:03;;;;;;;1.45;0.50;;;31.10;44.90;;;;;;5116110;28;20174;-78
2022/07/13 13:06:33;;;;;;;2.40;0.63;;;31.10;43.40;;;;;;5114382;28;20175;-78